EFW8RA LIPX-EGKK
Flight info
| Callsign | EFW8RA |
|---|---|
| Flight time | 1h 34m |
| Altitude | 36000 |
| Route | LEGLO DCT ABREG DCT ELMUR DCT RIPUS L613 HOC DCT LUL DCT RLP DCT ROTSI DCT KOTUN DCT NINAL DCT KESAX DCT KUNAV |
| Aircraft | A321/M-SDE3FGHIRWY/LB1 |
Departure
| Time | 2026-05-05 19:14 |
|---|---|
| Airport | Verona Villafranca Valerio Catullo Airport (LIPX) |
Arrival
| Time | 2026-05-05 20:48 |
|---|---|
| Airport | London Gatwick Airport (EGKK) |
| Time | Latitude | Longitude | Altitude | Speed | Heading |
|---|---|---|---|---|---|
| 2026-05-05 18:55 | 45.40179 | 10.90414 | 230 ft | 0 kts | 181° |
| 2026-05-05 19:06 | 45.40189 | 10.90414 | 230 ft | 2 kts | 181° |
| 2026-05-05 19:06 | 45.40203 | 10.90414 | 230 ft | 2 kts | 181° |
| 2026-05-05 19:06 | 45.40218 | 10.90416 | 230 ft | 2 kts | 191° |
| 2026-05-05 19:07 | 45.40233 | 10.90421 | 231 ft | 2 kts | 196° |
| 2026-05-05 19:07 | 45.40247 | 10.90428 | 231 ft | 2 kts | 203° |
| 2026-05-05 19:07 | 45.40261 | 10.90437 | 231 ft | 2 kts | 210° |
| 2026-05-05 19:07 | 45.40273 | 10.90449 | 231 ft | 2 kts | 217° |
| 2026-05-05 19:08 | 45.40284 | 10.90462 | 231 ft | 1 kts | 223° |
| 2026-05-05 19:08 | 45.40287 | 10.90466 | 232 ft | 0 kts | 225° |
| 2026-05-05 19:11 | 45.40265 | 10.90426 | 231 ft | 11 kts | 250° |
| 2026-05-05 19:12 | 45.40292 | 10.90345 | 232 ft | 12 kts | 314° |
| 2026-05-05 19:12 | 45.40332 | 10.90241 | 231 ft | 11 kts | 273° |
| 2026-05-05 19:12 | 45.40340 | 10.90184 | 230 ft | 0 kts | 294° |
| 2026-05-05 19:13 | 45.40342 | 10.90178 | 230 ft | 4 kts | 294° |
| 2026-05-05 19:13 | 45.40374 | 10.90078 | 230 ft | 17 kts | 291° |
| 2026-05-05 19:14 | 45.40266 | 10.89864 | 231 ft | 55 kts | 226° |
| 2026-05-05 19:14 | 45.39829 | 10.89230 | 231 ft | 124 kts | 225° |
| 2026-05-05 19:14 | 45.39094 | 10.88166 | 382 ft | 165 kts | 225° |
| 2026-05-05 19:14 | 45.38309 | 10.86988 | 1007 ft | 167 kts | 232° |
| 2026-05-05 19:15 | 45.37752 | 10.85552 | 1662 ft | 169 kts | 246° |
| 2026-05-05 19:15 | 45.37311 | 10.83994 | 2227 ft | 173 kts | 249° |
| 2026-05-05 19:15 | 45.36875 | 10.82384 | 2556 ft | 182 kts | 248° |
| 2026-05-05 19:15 | 45.36400 | 10.80655 | 2827 ft | 195 kts | 248° |
| 2026-05-05 19:16 | 45.35886 | 10.78812 | 3108 ft | 209 kts | 248° |
| 2026-05-05 19:16 | 45.35339 | 10.76833 | 3386 ft | 224 kts | 251° |
| 2026-05-05 19:16 | 45.35249 | 10.74530 | 3571 ft | 248 kts | 285° |
| 2026-05-05 19:16 | 45.36160 | 10.72396 | 3925 ft | 265 kts | 319° |
| 2026-05-05 19:17 | 45.37800 | 10.71166 | 4541 ft | 272 kts | 338° |
| 2026-05-05 19:17 | 45.39552 | 10.70134 | 5273 ft | 274 kts | 331° |
| 2026-05-05 19:17 | 45.40990 | 10.68447 | 5952 ft | 274 kts | 304° |
| 2026-05-05 19:17 | 45.41851 | 10.66070 | 6742 ft | 272 kts | 289° |
| 2026-05-05 19:18 | 45.42499 | 10.63534 | 7530 ft | 274 kts | 287° |
| 2026-05-05 19:18 | 45.43119 | 10.61000 | 8292 ft | 277 kts | 287° |
| 2026-05-05 19:18 | 45.43775 | 10.58399 | 9085 ft | 279 kts | 287° |
| 2026-05-05 19:18 | 45.44441 | 10.55841 | 9861 ft | 281 kts | 288° |
| 2026-05-05 19:19 | 45.45126 | 10.53248 | 10612 ft | 282 kts | 288° |
| 2026-05-05 19:19 | 45.45823 | 10.50644 | 11335 ft | 284 kts | 288° |
| 2026-05-05 19:19 | 45.46526 | 10.48023 | 12027 ft | 286 kts | 288° |
| 2026-05-05 19:19 | 45.47233 | 10.45389 | 12694 ft | 289 kts | 288° |
| 2026-05-05 19:20 | 45.47950 | 10.42725 | 13353 ft | 291 kts | 288° |
| 2026-05-05 19:20 | 45.48675 | 10.40032 | 13802 ft | 293 kts | 288° |
| 2026-05-05 19:20 | 45.49400 | 10.37332 | 13959 ft | 294 kts | 288° |
| 2026-05-05 19:20 | 45.50142 | 10.34526 | 13972 ft | 311 kts | 287° |
| 2026-05-05 19:21 | 45.50917 | 10.31542 | 13973 ft | 332 kts | 287° |
| 2026-05-05 19:21 | 45.51804 | 10.28435 | 14108 ft | 348 kts | 295° |
| 2026-05-05 19:21 | 45.53429 | 10.25857 | 14673 ft | 361 kts | 320° |
| 2026-05-05 19:21 | 45.55559 | 10.23982 | 15424 ft | 363 kts | 325° |
| 2026-05-05 19:22 | 45.57737 | 10.22158 | 16008 ft | 367 kts | 324° |
| 2026-05-05 19:22 | 45.59928 | 10.20287 | 16532 ft | 371 kts | 324° |
| 2026-05-05 19:22 | 45.62137 | 10.18355 | 17080 ft | 374 kts | 323° |
| 2026-05-05 19:22 | 45.64356 | 10.16381 | 17625 ft | 378 kts | 323° |
| 2026-05-05 19:23 | 45.66571 | 10.14389 | 18165 ft | 381 kts | 322° |
| 2026-05-05 19:23 | 45.68798 | 10.12372 | 18687 ft | 384 kts | 322° |
| 2026-05-05 19:23 | 45.71070 | 10.10305 | 19214 ft | 388 kts | 322° |
| 2026-05-05 19:23 | 45.73367 | 10.08210 | 19743 ft | 391 kts | 322° |
| 2026-05-05 19:24 | 45.75636 | 10.06136 | 20252 ft | 394 kts | 322° |
| 2026-05-05 19:24 | 45.77967 | 10.04004 | 20774 ft | 397 kts | 322° |
| 2026-05-05 19:24 | 45.80293 | 10.01870 | 21272 ft | 400 kts | 322° |
| 2026-05-05 19:24 | 45.82626 | 9.99728 | 21768 ft | 402 kts | 322° |
| 2026-05-05 19:25 | 45.84981 | 9.97567 | 22241 ft | 405 kts | 322° |
| 2026-05-05 19:25 | 45.87365 | 9.95375 | 22704 ft | 408 kts | 322° |
| 2026-05-05 19:25 | 45.89740 | 9.93189 | 23139 ft | 411 kts | 321° |
| 2026-05-05 19:25 | 45.92148 | 9.90972 | 23595 ft | 413 kts | 321° |
| 2026-05-05 19:26 | 45.94555 | 9.88752 | 24045 ft | 415 kts | 321° |
| 2026-05-05 19:26 | 45.96989 | 9.86505 | 24469 ft | 417 kts | 321° |
| 2026-05-05 19:26 | 45.99407 | 9.84271 | 24908 ft | 418 kts | 321° |
| 2026-05-05 19:26 | 46.01870 | 9.81991 | 25294 ft | 421 kts | 321° |
| 2026-05-05 19:27 | 46.04348 | 9.79695 | 25699 ft | 423 kts | 321° |
| 2026-05-05 19:27 | 46.06811 | 9.77408 | 26052 ft | 426 kts | 321° |
| 2026-05-05 19:27 | 46.09280 | 9.75114 | 26414 ft | 428 kts | 321° |
| 2026-05-05 19:27 | 46.11818 | 9.72755 | 26775 ft | 430 kts | 321° |
| 2026-05-05 19:28 | 46.14348 | 9.70401 | 27118 ft | 432 kts | 321° |
| 2026-05-05 19:28 | 46.16862 | 9.68061 | 27435 ft | 435 kts | 320° |
| 2026-05-05 19:28 | 46.19435 | 9.65659 | 27777 ft | 436 kts | 320° |
| 2026-05-05 19:28 | 46.21994 | 9.63268 | 28096 ft | 438 kts | 320° |
| 2026-05-05 19:29 | 46.24562 | 9.60865 | 28404 ft | 441 kts | 320° |
| 2026-05-05 19:29 | 46.27110 | 9.58482 | 28710 ft | 442 kts | 320° |
| 2026-05-05 19:29 | 46.29712 | 9.56079 | 29001 ft | 446 kts | 322° |
| 2026-05-05 19:29 | 46.32419 | 9.53855 | 29312 ft | 450 kts | 325° |
| 2026-05-05 19:30 | 46.35173 | 9.51770 | 29601 ft | 452 kts | 326° |
| 2026-05-05 19:30 | 46.37961 | 9.49699 | 29932 ft | 453 kts | 326° |
| 2026-05-05 19:30 | 46.40770 | 9.47616 | 30299 ft | 452 kts | 326° |
| 2026-05-05 19:30 | 46.43550 | 9.45550 | 30656 ft | 451 kts | 326° |
| 2026-05-05 19:31 | 46.46321 | 9.43486 | 31009 ft | 450 kts | 326° |
| 2026-05-05 19:31 | 46.49102 | 9.41406 | 31336 ft | 449 kts | 325° |
| 2026-05-05 19:31 | 46.51853 | 9.39344 | 31642 ft | 449 kts | 325° |
| 2026-05-05 19:31 | 46.54641 | 9.37251 | 31962 ft | 449 kts | 326° |
| 2026-05-05 19:32 | 46.57404 | 9.35172 | 32271 ft | 448 kts | 325° |
| 2026-05-05 19:32 | 46.60145 | 9.33109 | 32592 ft | 447 kts | 324° |
| 2026-05-05 19:32 | 46.62902 | 9.31031 | 32894 ft | 447 kts | 324° |
| 2026-05-05 19:32 | 46.65645 | 9.28960 | 33186 ft | 447 kts | 324° |
| 2026-05-05 19:33 | 46.68417 | 9.26866 | 33490 ft | 446 kts | 324° |
| 2026-05-05 19:33 | 46.71158 | 9.24790 | 33738 ft | 447 kts | 324° |
| 2026-05-05 19:33 | 46.73881 | 9.22728 | 33982 ft | 447 kts | 324° |
| 2026-05-05 19:33 | 46.76638 | 9.20638 | 34252 ft | 447 kts | 324° |
| 2026-05-05 19:34 | 46.79390 | 9.18548 | 34482 ft | 447 kts | 324° |
| 2026-05-05 19:34 | 46.82132 | 9.16459 | 34688 ft | 448 kts | 325° |
| 2026-05-05 19:34 | 46.84909 | 9.14342 | 34873 ft | 449 kts | 325° |
| 2026-05-05 19:35 | 46.90430 | 9.10133 | 35191 ft | 451 kts | 326° |
| 2026-05-05 19:35 | 46.93228 | 9.07997 | 35353 ft | 452 kts | 326° |
| 2026-05-05 19:35 | 46.95996 | 9.05881 | 35531 ft | 452 kts | 326° |
| 2026-05-05 19:35 | 46.98765 | 9.03762 | 35673 ft | 453 kts | 326° |
| 2026-05-05 19:36 | 47.01557 | 9.01622 | 35780 ft | 454 kts | 326° |
| 2026-05-05 19:36 | 47.04382 | 8.99452 | 35882 ft | 456 kts | 327° |
| 2026-05-05 19:36 | 47.07186 | 8.97296 | 35899 ft | 457 kts | 326° |
| 2026-05-05 19:37 | 47.12302 | 8.92083 | 35901 ft | 447 kts | 312° |
| 2026-05-05 19:37 | 47.16333 | 8.85309 | 35908 ft | 438 kts | 298° |
| 2026-05-05 19:38 | 47.19098 | 8.77497 | 35906 ft | 430 kts | 286° |
| 2026-05-05 19:38 | 47.21182 | 8.69304 | 35907 ft | 429 kts | 285° |
| 2026-05-05 19:39 | 47.23242 | 8.61075 | 35888 ft | 430 kts | 285° |
| 2026-05-05 19:39 | 47.25317 | 8.52848 | 35877 ft | 430 kts | 285° |
| 2026-05-05 19:40 | 47.27398 | 8.44601 | 35874 ft | 431 kts | 285° |
| 2026-05-05 19:40 | 47.29469 | 8.36371 | 35878 ft | 431 kts | 286° |
| 2026-05-05 19:41 | 47.31542 | 8.28091 | 35875 ft | 432 kts | 285° |
| 2026-05-05 19:41 | 47.33593 | 8.19848 | 35876 ft | 433 kts | 285° |
| 2026-05-05 19:42 | 47.35654 | 8.11532 | 35867 ft | 433 kts | 285° |
| 2026-05-05 19:42 | 47.37710 | 8.03200 | 35874 ft | 434 kts | 285° |
| 2026-05-05 19:43 | 47.39766 | 7.94839 | 35854 ft | 435 kts | 285° |
| 2026-05-05 19:43 | 47.41824 | 7.86438 | 35856 ft | 436 kts | 285° |
| 2026-05-05 19:44 | 47.43858 | 7.78097 | 35844 ft | 436 kts | 285° |
| 2026-05-05 19:44 | 47.45904 | 7.69661 | 35872 ft | 436 kts | 285° |
| 2026-05-05 19:45 | 47.47589 | 7.61098 | 36104 ft | 434 kts | 280° |
| 2026-05-05 19:45 | 47.48314 | 7.56803 | 35968 ft | 433 kts | 280° |
| 2026-05-05 19:45 | 47.49033 | 7.52500 | 35912 ft | 433 kts | 280° |
| 2026-05-05 19:46 | 47.50465 | 7.43883 | 35871 ft | 433 kts | 280° |
| 2026-05-05 19:46 | 47.51894 | 7.35253 | 35866 ft | 434 kts | 280° |
| 2026-05-05 19:47 | 47.53319 | 7.26613 | 35866 ft | 435 kts | 279° |
| 2026-05-05 19:47 | 47.54738 | 7.17969 | 35861 ft | 435 kts | 279° |
| 2026-05-05 19:48 | 47.56162 | 7.09256 | 35864 ft | 435 kts | 280° |
| 2026-05-05 19:48 | 47.58445 | 7.00946 | 35865 ft | 444 kts | 295° |
| 2026-05-05 19:49 | 47.61517 | 6.93011 | 35867 ft | 444 kts | 296° |
| 2026-05-05 19:49 | 47.64589 | 6.85097 | 35863 ft | 445 kts | 296° |
| 2026-05-05 19:50 | 47.67645 | 6.77141 | 35858 ft | 446 kts | 296° |
| 2026-05-05 19:50 | 47.70688 | 6.69164 | 35858 ft | 446 kts | 296° |
| 2026-05-05 19:51 | 47.73711 | 6.61209 | 35852 ft | 446 kts | 296° |
| 2026-05-05 19:51 | 47.76752 | 6.53180 | 35851 ft | 446 kts | 296° |
| 2026-05-05 19:52 | 47.79768 | 6.45185 | 35850 ft | 446 kts | 296° |
| 2026-05-05 19:52 | 47.82789 | 6.37155 | 35848 ft | 447 kts | 296° |
| 2026-05-05 19:53 | 47.85807 | 6.29110 | 35846 ft | 447 kts | 296° |
| 2026-05-05 19:53 | 47.88818 | 6.21061 | 35840 ft | 447 kts | 296° |
| 2026-05-05 19:54 | 47.91833 | 6.12976 | 35843 ft | 447 kts | 296° |
| 2026-05-05 19:54 | 47.94844 | 6.04878 | 35837 ft | 447 kts | 296° |
| 2026-05-05 19:55 | 47.97848 | 5.96771 | 35835 ft | 447 kts | 296° |
| 2026-05-05 19:55 | 48.00829 | 5.88704 | 35836 ft | 448 kts | 296° |
| 2026-05-05 19:56 | 48.03821 | 5.80584 | 35845 ft | 448 kts | 296° |
| 2026-05-05 19:56 | 48.06827 | 5.72397 | 35845 ft | 449 kts | 296° |
| 2026-05-05 19:57 | 48.09798 | 5.64282 | 35826 ft | 449 kts | 296° |
| 2026-05-05 19:57 | 48.12785 | 5.56094 | 35831 ft | 450 kts | 296° |
| 2026-05-05 19:58 | 48.15778 | 5.47865 | 35821 ft | 450 kts | 296° |
| 2026-05-05 19:58 | 48.18750 | 5.39668 | 35822 ft | 451 kts | 296° |
| 2026-05-05 19:59 | 48.21722 | 5.31449 | 35816 ft | 451 kts | 296° |
| 2026-05-05 19:59 | 48.24690 | 5.23216 | 35826 ft | 451 kts | 296° |
| 2026-05-05 20:00 | 48.27659 | 5.14952 | 35816 ft | 451 kts | 296° |
| 2026-05-05 20:00 | 48.30614 | 5.06701 | 35814 ft | 451 kts | 296° |
| 2026-05-05 20:01 | 48.33571 | 4.98416 | 35812 ft | 451 kts | 296° |
| 2026-05-05 20:01 | 48.36523 | 4.90118 | 35815 ft | 452 kts | 296° |
| 2026-05-05 20:02 | 48.39461 | 4.81836 | 35806 ft | 453 kts | 296° |
| 2026-05-05 20:02 | 48.42419 | 4.73474 | 35804 ft | 452 kts | 296° |
| 2026-05-05 20:03 | 48.45348 | 4.65162 | 35818 ft | 453 kts | 296° |
| 2026-05-05 20:03 | 48.48290 | 4.56784 | 35809 ft | 453 kts | 296° |
| 2026-05-05 20:04 | 48.51213 | 4.48440 | 35810 ft | 453 kts | 296° |
| 2026-05-05 20:04 | 48.54149 | 4.40024 | 35800 ft | 454 kts | 297° |
| 2026-05-05 20:05 | 48.57078 | 4.31607 | 35804 ft | 454 kts | 296° |
| 2026-05-05 20:05 | 48.60318 | 4.23534 | 35801 ft | 456 kts | 308° |
| 2026-05-05 20:06 | 48.64571 | 4.16375 | 35810 ft | 457 kts | 311° |
| 2026-05-05 20:06 | 48.68856 | 4.09346 | 35798 ft | 457 kts | 311° |
| 2026-05-05 20:07 | 48.73140 | 4.02228 | 35796 ft | 457 kts | 311° |
| 2026-05-05 20:07 | 48.77370 | 3.95142 | 35805 ft | 457 kts | 311° |
| 2026-05-05 20:08 | 48.81636 | 3.87965 | 35797 ft | 458 kts | 311° |
| 2026-05-05 20:08 | 48.85860 | 3.80837 | 35798 ft | 458 kts | 311° |
| 2026-05-05 20:09 | 48.90105 | 3.73649 | 35798 ft | 457 kts | 311° |
| 2026-05-05 20:09 | 48.94349 | 3.66447 | 35810 ft | 457 kts | 311° |
| 2026-05-05 20:10 | 48.98571 | 3.59259 | 35831 ft | 457 kts | 311° |
| 2026-05-05 20:10 | 49.02793 | 3.52048 | 35806 ft | 458 kts | 311° |
| 2026-05-05 20:11 | 49.07005 | 3.44839 | 35825 ft | 458 kts | 312° |
| 2026-05-05 20:11 | 49.11242 | 3.37566 | 35836 ft | 458 kts | 312° |
| 2026-05-05 20:12 | 49.15462 | 3.30304 | 35806 ft | 458 kts | 311° |
| 2026-05-05 20:12 | 49.19672 | 3.23039 | 35818 ft | 458 kts | 311° |
| 2026-05-05 20:13 | 49.23877 | 3.15761 | 35822 ft | 458 kts | 311° |
| 2026-05-05 20:13 | 49.28072 | 3.08475 | 35824 ft | 458 kts | 311° |
| 2026-05-05 20:14 | 49.32274 | 3.01161 | 35829 ft | 459 kts | 311° |
| 2026-05-05 20:14 | 49.36474 | 2.93830 | 35839 ft | 459 kts | 311° |
| 2026-05-05 20:15 | 49.40681 | 2.86469 | 35826 ft | 460 kts | 311° |
| 2026-05-05 20:15 | 49.44855 | 2.79142 | 35831 ft | 459 kts | 311° |
| 2026-05-05 20:16 | 49.49065 | 2.71731 | 35842 ft | 459 kts | 311° |
| 2026-05-05 20:16 | 49.53234 | 2.64371 | 35847 ft | 459 kts | 311° |
| 2026-05-05 20:17 | 49.57423 | 2.56953 | 35856 ft | 460 kts | 311° |
| 2026-05-05 20:17 | 49.61604 | 2.49530 | 35850 ft | 460 kts | 311° |
| 2026-05-05 20:18 | 49.65767 | 2.42118 | 35851 ft | 460 kts | 311° |
| 2026-05-05 20:18 | 49.69944 | 2.34661 | 35849 ft | 460 kts | 310° |
| 2026-05-05 20:19 | 49.74111 | 2.27199 | 35850 ft | 460 kts | 310° |
| 2026-05-05 20:19 | 49.78291 | 2.19690 | 35852 ft | 460 kts | 310° |
| 2026-05-05 20:20 | 49.82433 | 2.12229 | 35864 ft | 459 kts | 310° |
| 2026-05-05 20:20 | 49.86560 | 2.04776 | 35871 ft | 458 kts | 310° |
| 2026-05-05 20:21 | 49.90655 | 1.97354 | 35396 ft | 453 kts | 310° |
| 2026-05-05 20:21 | 49.92713 | 1.93613 | 35058 ft | 458 kts | 311° |
| 2026-05-05 20:21 | 49.94764 | 1.89883 | 34878 ft | 460 kts | 311° |
| 2026-05-05 20:22 | 49.98914 | 1.82323 | 34877 ft | 461 kts | 311° |
| 2026-05-05 20:22 | 50.03064 | 1.74738 | 34876 ft | 461 kts | 311° |
| 2026-05-05 20:23 | 50.07310 | 1.67351 | 34879 ft | 460 kts | 315° |
| 2026-05-05 20:23 | 50.12031 | 1.60634 | 34881 ft | 459 kts | 320° |
| 2026-05-05 20:24 | 50.16842 | 1.54148 | 34880 ft | 458 kts | 320° |
| 2026-05-05 20:24 | 50.21607 | 1.47690 | 34810 ft | 448 kts | 320° |
| 2026-05-05 20:24 | 50.23907 | 1.44555 | 34158 ft | 439 kts | 320° |
| 2026-05-05 20:25 | 50.26198 | 1.41427 | 32730 ft | 445 kts | 320° |
| 2026-05-05 20:25 | 50.28527 | 1.38241 | 31152 ft | 451 kts | 320° |
| 2026-05-05 20:25 | 50.30829 | 1.35087 | 29770 ft | 448 kts | 320° |
| 2026-05-05 20:25 | 50.33190 | 1.31848 | 28299 ft | 446 kts | 319° |
| 2026-05-05 20:26 | 50.35507 | 1.28661 | 27183 ft | 435 kts | 319° |
| 2026-05-05 20:26 | 50.37845 | 1.25442 | 26077 ft | 424 kts | 319° |
| 2026-05-05 20:26 | 50.40093 | 1.22342 | 24932 ft | 415 kts | 319° |
| 2026-05-05 20:26 | 50.42214 | 1.19413 | 23838 ft | 407 kts | 320° |
| 2026-05-05 20:27 | 50.44310 | 1.16518 | 22812 ft | 399 kts | 320° |
| 2026-05-05 20:27 | 50.46346 | 1.13703 | 21802 ft | 392 kts | 320° |
| 2026-05-05 20:27 | 50.48381 | 1.10885 | 20771 ft | 386 kts | 320° |
| 2026-05-05 20:27 | 50.50341 | 1.08167 | 19776 ft | 380 kts | 319° |
| 2026-05-05 20:28 | 50.52242 | 1.05305 | 18754 ft | 375 kts | 315° |
| 2026-05-05 20:28 | 50.54000 | 1.02401 | 17756 ft | 371 kts | 314° |
| 2026-05-05 20:28 | 50.55759 | 0.99433 | 16830 ft | 364 kts | 314° |
| 2026-05-05 20:28 | 50.57472 | 0.96532 | 16235 ft | 362 kts | 314° |
| 2026-05-05 20:29 | 50.59228 | 0.93557 | 15929 ft | 353 kts | 314° |
| 2026-05-05 20:29 | 50.60867 | 0.90780 | 15904 ft | 337 kts | 315° |
| 2026-05-05 20:29 | 50.62405 | 0.88171 | 15902 ft | 321 kts | 315° |
| 2026-05-05 20:29 | 50.63907 | 0.85626 | 15908 ft | 316 kts | 315° |
| 2026-05-05 20:30 | 50.65408 | 0.83083 | 15912 ft | 316 kts | 315° |
| 2026-05-05 20:30 | 50.66904 | 0.80550 | 15920 ft | 315 kts | 314° |
| 2026-05-05 20:30 | 50.68328 | 0.77938 | 15915 ft | 316 kts | 311° |
| 2026-05-05 20:30 | 50.69711 | 0.75252 | 15915 ft | 316 kts | 310° |
| 2026-05-05 20:31 | 50.71083 | 0.72558 | 15915 ft | 316 kts | 310° |
| 2026-05-05 20:31 | 50.72457 | 0.69856 | 15913 ft | 315 kts | 310° |
| 2026-05-05 20:31 | 50.73826 | 0.67164 | 15907 ft | 313 kts | 310° |
| 2026-05-05 20:31 | 50.75167 | 0.64528 | 15640 ft | 310 kts | 310° |
| 2026-05-05 20:32 | 50.76520 | 0.61868 | 15187 ft | 311 kts | 311° |
| 2026-05-05 20:32 | 50.77873 | 0.59205 | 14776 ft | 310 kts | 311° |
| 2026-05-05 20:32 | 50.79210 | 0.56571 | 14396 ft | 309 kts | 311° |
| 2026-05-05 20:32 | 50.80568 | 0.53895 | 14007 ft | 307 kts | 311° |
| 2026-05-05 20:33 | 50.81895 | 0.51278 | 13633 ft | 306 kts | 311° |
| 2026-05-05 20:33 | 50.83222 | 0.48666 | 13285 ft | 303 kts | 310° |
| 2026-05-05 20:33 | 50.84533 | 0.46080 | 12939 ft | 301 kts | 310° |
| 2026-05-05 20:33 | 50.85835 | 0.43505 | 12590 ft | 299 kts | 310° |
| 2026-05-05 20:34 | 50.87136 | 0.40930 | 12234 ft | 296 kts | 310° |
| 2026-05-05 20:34 | 50.88412 | 0.38402 | 11953 ft | 293 kts | 310° |
| 2026-05-05 20:34 | 50.89669 | 0.35907 | 11933 ft | 294 kts | 310° |
| 2026-05-05 20:34 | 50.90959 | 0.33347 | 11930 ft | 294 kts | 309° |
| 2026-05-05 20:35 | 50.92256 | 0.30768 | 11929 ft | 294 kts | 309° |
| 2026-05-05 20:35 | 50.93586 | 0.28121 | 11930 ft | 295 kts | 309° |
| 2026-05-05 20:35 | 50.94875 | 0.25553 | 11928 ft | 294 kts | 309° |
| 2026-05-05 20:35 | 50.96129 | 0.23023 | 11699 ft | 291 kts | 309° |
| 2026-05-05 20:36 | 50.97399 | 0.20450 | 11258 ft | 291 kts | 309° |
| 2026-05-05 20:36 | 50.98695 | 0.17818 | 10882 ft | 290 kts | 309° |
| 2026-05-05 20:36 | 50.99966 | 0.15240 | 10527 ft | 288 kts | 309° |
| 2026-05-05 20:36 | 51.01225 | 0.12636 | 10138 ft | 286 kts | 305° |
| 2026-05-05 20:37 | 51.01936 | 0.09610 | 9685 ft | 289 kts | 277° |
| 2026-05-05 20:37 | 51.02021 | 0.06351 | 9364 ft | 287 kts | 274° |
| 2026-05-05 20:37 | 51.02119 | 0.03229 | 9004 ft | 286 kts | 275° |
| 2026-05-05 20:37 | 51.02239 | 0.00081 | 8647 ft | 285 kts | 276° |
| 2026-05-05 20:38 | 51.02368 | -0.03074 | 8299 ft | 283 kts | 276° |
| 2026-05-05 20:38 | 51.02497 | -0.06172 | 7964 ft | 281 kts | 276° |
| 2026-05-05 20:38 | 51.02625 | -0.09223 | 7626 ft | 280 kts | 276° |
| 2026-05-05 20:38 | 51.02755 | -0.12316 | 7277 ft | 278 kts | 276° |
| 2026-05-05 20:39 | 51.02880 | -0.15316 | 7072 ft | 272 kts | 276° |
| 2026-05-05 20:39 | 51.03003 | -0.18287 | 6947 ft | 261 kts | 276° |
| 2026-05-05 20:39 | 51.03120 | -0.21146 | 6941 ft | 256 kts | 276° |
| 2026-05-05 20:39 | 51.03241 | -0.24060 | 6899 ft | 252 kts | 276° |
| 2026-05-05 20:40 | 51.03358 | -0.26918 | 6571 ft | 252 kts | 276° |
| 2026-05-05 20:40 | 51.03474 | -0.29769 | 6208 ft | 253 kts | 276° |
| 2026-05-05 20:40 | 51.03589 | -0.32580 | 5876 ft | 253 kts | 276° |
| 2026-05-05 20:40 | 51.03701 | -0.35391 | 5612 ft | 249 kts | 276° |
| 2026-05-05 20:41 | 51.03807 | -0.38100 | 5446 ft | 243 kts | 277° |
| 2026-05-05 20:41 | 51.03916 | -0.40850 | 5207 ft | 241 kts | 277° |
| 2026-05-05 20:41 | 51.04024 | -0.43591 | 4908 ft | 241 kts | 277° |
| 2026-05-05 20:41 | 51.04132 | -0.46296 | 4620 ft | 240 kts | 277° |
| 2026-05-05 20:42 | 51.04243 | -0.49032 | 4333 ft | 239 kts | 279° |
| 2026-05-05 20:42 | 51.04759 | -0.51508 | 4000 ft | 232 kts | 313° |
| 2026-05-05 20:42 | 51.06072 | -0.52904 | 3697 ft | 222 kts | 350° |
| 2026-05-05 20:42 | 51.07570 | -0.52730 | 3384 ft | 216 kts | 27° |
| 2026-05-05 20:43 | 51.08710 | -0.51270 | 3169 ft | 211 kts | 48° |
| 2026-05-05 20:43 | 51.09647 | -0.49521 | 3034 ft | 204 kts | 51° |
| 2026-05-05 20:43 | 51.10456 | -0.47739 | 2975 ft | 194 kts | 60° |
| 2026-05-05 20:43 | 51.10966 | -0.45858 | 3085 ft | 175 kts | 69° |
| 2026-05-05 20:44 | 51.11320 | -0.44022 | 3043 ft | 165 kts | 72° |
| 2026-05-05 20:44 | 51.11615 | -0.42278 | 2926 ft | 160 kts | 73° |
| 2026-05-05 20:44 | 51.11866 | -0.40607 | 2700 ft | 152 kts | 74° |
| 2026-05-05 20:44 | 51.12093 | -0.38984 | 2501 ft | 150 kts | 75° |
| 2026-05-05 20:45 | 51.12537 | -0.35712 | 2109 ft | 148 kts | 75° |
| 2026-05-05 20:45 | 51.12748 | -0.34145 | 1905 ft | 142 kts | 75° |
| 2026-05-05 20:45 | 51.12950 | -0.32645 | 1707 ft | 132 kts | 75° |
| 2026-05-05 20:46 | 51.13136 | -0.31272 | 1518 ft | 124 kts | 75° |
| 2026-05-05 20:46 | 51.13326 | -0.29888 | 1358 ft | 124 kts | 75° |
| 2026-05-05 20:46 | 51.13512 | -0.28526 | 1205 ft | 125 kts | 75° |
| 2026-05-05 20:46 | 51.13702 | -0.27135 | 1037 ft | 126 kts | 76° |
| 2026-05-05 20:47 | 51.13893 | -0.25749 | 866 ft | 126 kts | 76° |
| 2026-05-05 20:47 | 51.14083 | -0.24365 | 710 ft | 127 kts | 76° |
| 2026-05-05 20:47 | 51.14274 | -0.22975 | 531 ft | 128 kts | 76° |
| 2026-05-05 20:47 | 51.14462 | -0.21605 | 358 ft | 128 kts | 78° |
| 2026-05-05 20:48 | 51.14653 | -0.20208 | 220 ft | 129 kts | 77° |
| 2026-05-05 20:48 | 51.14836 | -0.18870 | 200 ft | 105 kts | 77° |
| 2026-05-05 20:48 | 51.14957 | -0.18005 | 199 ft | 55 kts | 77° |
| 2026-05-05 20:48 | 51.15020 | -0.17561 | 199 ft | 36 kts | 78° |
| 2026-05-05 20:49 | 51.15071 | -0.17188 | 199 ft | 29 kts | 78° |
| 2026-05-05 20:49 | 51.15110 | -0.16892 | 199 ft | 26 kts | 77° |
| 2026-05-05 20:49 | 51.15142 | -0.16675 | 199 ft | 12 kts | 66° |
| 2026-05-05 20:49 | 51.15215 | -0.16638 | 199 ft | 10 kts | 350° |
| 2026-05-05 20:50 | 51.15288 | -0.16663 | 199 ft | 11 kts | 347° |
| 2026-05-05 20:50 | 51.15368 | -0.16696 | 199 ft | 12 kts | 343° |
| 2026-05-05 20:50 | 51.15444 | -0.16675 | 199 ft | 12 kts | 62° |
| 2026-05-05 20:50 | 51.15470 | -0.16543 | 199 ft | 11 kts | 66° |
| 2026-05-05 20:51 | 51.15487 | -0.16448 | 199 ft | 4 kts | 77° |
| 2026-05-05 20:51 | 51.15487 | -0.16442 | 199 ft | 0 kts | 77° |